sensor_id;sensor_type;location;lat;lon;timestamp;temperature;humidity
41928;DHT22;27616;51.420;6.788;2023-06-01T00:01:27;16.00;99.90
41928;DHT22;27616;51.420;6.788;2023-06-01T00:04:03;15.90;99.90
41928;DHT22;27616;51.420;6.788;2023-06-01T00:06:29;15.80;99.90
41928;DHT22;27616;51.420;6.788;2023-06-01T00:08:58;15.80;99.90
41928;DHT22;27616;51.420;6.788;2023-06-01T00:11:24;15.80;99.90
41928;DHT22;27616;51.420;6.788;2023-06-01T00:13:52;15.70;99.90
41928;DHT22;27616;51.420;6.788;2023-06-01T00:16:19;15.70;99.90
41928;DHT22;27616;51.420;6.788;2023-06-01T00:18:45;15.60;99.90
41928;DHT22;27616;51.420;6.788;2023-06-01T00:21:11;15.50;99.90
41928;DHT22;27616;51.420;6.788;2023-06-01T00:23:37;15.50;99.90
41928;DHT22;27616;51.420;6.788;2023-06-01T00:26:09;15.40;99.90
41928;DHT22;27616;51.420;6.788;2023-06-01T00:28:36;15.40;99.90
41928;DHT22;27616;51.420;6.788;2023-06-01T00:31:02;15.30;99.90
41928;DHT22;27616;51.420;6.788;2023-06-01T00:33:28;15.20;99.90
41928;DHT22;27616;51.420;6.788;2023-06-01T00:35:54;15.20;99.90
41928;DHT22;27616;51.420;6.788;2023-06-01T00:38:20;15.10;99.90
41928;DHT22;27616;51.420;6.788;2023-06-01T00:40:46;15.00;99.90
41928;DHT22;27616;51.420;6.788;2023-06-01T00:43:15;14.90;99.90
41928;DHT22;27616;51.420;6.788;2023-06-01T00:45:42;14.80;99.90
41928;DHT22;27616;51.420;6.788;2023-06-01T00:48:07;14.70;99.90
41928;DHT22;27616;51.420;6.788;2023-06-01T00:50:33;14.70;99.90
41928;DHT22;27616;51.420;6.788;2023-06-01T00:53:00;14.60;99.90
41928;DHT22;27616;51.420;6.788;2023-06-01T00:55:28;14.60;99.90
41928;DHT22;27616;51.420;6.788;2023-06-01T00:57:55;14.50;99.90
41928;DHT22;27616;51.420;6.788;2023-06-01T01:00:21;14.50;99.90
41928;DHT22;27616;51.420;6.788;2023-06-01T01:02:48;14.40;99.90
41928;DHT22;27616;51.420;6.788;2023-06-01T01:05:15;14.30;99.90
41928;DHT22;27616;51.420;6.788;2023-06-01T01:11:20;14.20;99.90
41928;DHT22;27616;51.420;6.788;2023-06-01T01:16:43;14.20;99.90
41928;DHT22;27616;51.420;6.788;2023-06-01T01:19:43;14.10;99.90
41928;DHT22;27616;51.420;6.788;2023-06-01T01:30:06;13.90;99.90
41928;DHT22;27616;51.420;6.788;2023-06-01T01:32:34;13.80;99.90
41928;DHT22;27616;51.420;6.788;2023-06-01T01:35:01;13.80;99.90
41928;DHT22;27616;51.420;6.788;2023-06-01T01:37:28;13.80;99.90
41928;DHT22;27616;51.420;6.788;2023-06-01T01:39:55;13.80;99.90
41928;DHT22;27616;51.420;6.788;2023-06-01T01:42:21;13.70;99.90
41928;DHT22;27616;51.420;6.788;2023-06-01T01:44:47;13.70;99.90
41928;DHT22;27616;51.420;6.788;2023-06-01T01:47:23;13.60;99.90
41928;DHT22;27616;51.420;6.788;2023-06-01T01:49:56;13.60;99.90
41928;DHT22;27616;51.420;6.788;2023-06-01T01:52:34;13.50;99.90
41928;DHT22;27616;51.420;6.788;2023-06-01T01:55:01;13.40;99.90
41928;DHT22;27616;51.420;6.788;2023-06-01T01:57:29;13.30;99.90
41928;DHT22;27616;51.420;6.788;2023-06-01T01:59:56;13.30;99.90
41928;DHT22;27616;51.420;6.788;2023-06-01T02:02:22;13.20;99.90
41928;DHT22;27616;51.420;6.788;2023-06-01T02:04:48;13.20;99.90
41928;DHT22;27616;51.420;6.788;2023-06-01T02:07:14;13.10;99.90
41928;DHT22;27616;51.420;6.788;2023-06-01T02:09:41;13.00;99.90
41928;DHT22;27616;51.420;6.788;2023-06-01T02:12:08;12.90;99.90
41928;DHT22;27616;51.420;6.788;2023-06-01T02:14:34;12.80;99.90
41928;DHT22;27616;51.420;6.788;2023-06-01T02:17:00;12.80;99.90
41928;DHT22;27616;51.420;6.788;2023-06-01T02:19:29;12.70;99.90
41928;DHT22;27616;51.420;6.788;2023-06-01T02:21:55;12.70;99.90
41928;DHT22;27616;51.420;6.788;2023-06-01T02:24:21;12.60;99.90
41928;DHT22;27616;51.420;6.788;2023-06-01T02:26:47;12.60;99.90
41928;DHT22;27616;51.420;6.788;2023-06-01T02:29:19;12.50;99.90
41928;DHT22;27616;51.420;6.788;2023-06-01T02:31:48;12.50;99.90
41928;DHT22;27616;51.420;6.788;2023-06-01T02:34:14;12.40;99.90
41928;DHT22;27616;51.420;6.788;2023-06-01T02:36:40;12.30;99.90
41928;DHT22;27616;51.420;6.788;2023-06-01T02:39:06;12.30;99.90
41928;DHT22;27616;51.420;6.788;2023-06-01T02:41:33;12.20;99.90
41928;DHT22;27616;51.420;6.788;2023-06-01T02:43:59;12.10;99.90
41928;DHT22;27616;51.420;6.788;2023-06-01T02:46:26;12.10;99.90
41928;DHT22;27616;51.420;6.788;2023-06-01T02:48:52;12.00;99.90
41928;DHT22;27616;51.420;6.788;2023-06-01T02:51:18;12.00;99.90
41928;DHT22;27616;51.420;6.788;2023-06-01T02:53:47;12.00;99.90
41928;DHT22;27616;51.420;6.788;2023-06-01T02:56:13;11.90;99.90
41928;DHT22;27616;51.420;6.788;2023-06-01T02:58:40;11.80;99.90
41928;DHT22;27616;51.420;6.788;2023-06-01T03:01:17;11.80;99.90
41928;DHT22;27616;51.420;6.788;2023-06-01T03:03:43;11.70;99.90
41928;DHT22;27616;51.420;6.788;2023-06-01T03:06:10;11.60;99.90
41928;DHT22;27616;51.420;6.788;2023-06-01T03:08:57;11.60;99.90
41928;DHT22;27616;51.420;6.788;2023-06-01T03:11:46;11.50;99.90
41928;DHT22;27616;51.420;6.788;2023-06-01T03:14:11;11.50;99.90
41928;DHT22;27616;51.420;6.788;2023-06-01T03:16:37;11.50;99.90
41928;DHT22;27616;51.420;6.788;2023-06-01T03:19:29;11.50;99.90
41928;DHT22;27616;51.420;6.788;2023-06-01T03:21:57;11.50;99.90
41928;DHT22;27616;51.420;6.788;2023-06-01T03:24:23;11.50;99.90
41928;DHT22;27616;51.420;6.788;2023-06-01T03:26:52;11.50;99.90
41928;DHT22;27616;51.420;6.788;2023-06-01T03:29:18;11.50;99.90
41928;DHT22;27616;51.420;6.788;2023-06-01T03:31:43;11.50;99.90
41928;DHT22;27616;51.420;6.788;2023-06-01T03:34:09;11.50;99.90
41928;DHT22;27616;51.420;6.788;2023-06-01T03:36:35;11.50;99.90
41928;DHT22;27616;51.420;6.788;2023-06-01T03:39:01;11.50;99.90
41928;DHT22;27616;51.420;6.788;2023-06-01T03:41:35;11.50;99.90
41928;DHT22;27616;51.420;6.788;2023-06-01T03:44:01;11.50;99.90
41928;DHT22;27616;51.420;6.788;2023-06-01T03:46:27;11.50;99.90
41928;DHT22;27616;51.420;6.788;2023-06-01T03:48:53;11.40;99.90
41928;DHT22;27616;51.420;6.788;2023-06-01T03:51:19;11.40;99.90
41928;DHT22;27616;51.420;6.788;2023-06-01T03:53:44;11.40;99.90
41928;DHT22;27616;51.420;6.788;2023-06-01T03:56:10;11.40;99.90
41928;DHT22;27616;51.420;6.788;2023-06-01T03:58:39;11.30;99.90
41928;DHT22;27616;51.420;6.788;2023-06-01T04:01:06;11.30;99.90
41928;DHT22;27616;51.420;6.788;2023-06-01T04:03:32;11.20;99.90
41928;DHT22;27616;51.420;6.788;2023-06-01T04:05:58;11.20;99.90
41928;DHT22;27616;51.420;6.788;2023-06-01T04:08:25;11.30;99.90
41928;DHT22;27616;51.420;6.788;2023-06-01T04:10:52;11.30;99.90
41928;DHT22;27616;51.420;6.788;2023-06-01T04:13:18;11.30;99.90
41928;DHT22;27616;51.420;6.788;2023-06-01T04:15:46;11.30;99.90
41928;DHT22;27616;51.420;6.788;2023-06-01T04:18:14;11.30;99.90
41928;DHT22;27616;51.420;6.788;2023-06-01T04:21:00;11.30;99.90
41928;DHT22;27616;51.420;6.788;2023-06-01T04:23:25;11.40;99.90
41928;DHT22;27616;51.420;6.788;2023-06-01T04:25:51;11.30;99.90
41928;DHT22;27616;51.420;6.788;2023-06-01T04:28:18;11.30;99.90
41928;DHT22;27616;51.420;6.788;2023-06-01T04:30:44;11.40;99.90
41928;DHT22;27616;51.420;6.788;2023-06-01T04:33:13;11.40;99.90
41928;DHT22;27616;51.420;6.788;2023-06-01T04:35:39;11.40;99.90
41928;DHT22;27616;51.420;6.788;2023-06-01T04:38:05;11.40;99.90
41928;DHT22;27616;51.420;6.788;2023-06-01T04:40:31;11.30;99.90
41928;DHT22;27616;51.420;6.788;2023-06-01T04:42:57;11.20;99.90
41928;DHT22;27616;51.420;6.788;2023-06-01T04:45:24;11.20;99.90
41928;DHT22;27616;51.420;6.788;2023-06-01T04:47:51;11.10;99.90
41928;DHT22;27616;51.420;6.788;2023-06-01T04:50:25;11.20;99.90
41928;DHT22;27616;51.420;6.788;2023-06-01T04:52:54;11.10;99.90
41928;DHT22;27616;51.420;6.788;2023-06-01T04:55:20;11.10;99.90
41928;DHT22;27616;51.420;6.788;2023-06-01T04:57:46;11.20;99.90
41928;DHT22;27616;51.420;6.788;2023-06-01T05:00:14;11.20;99.90
41928;DHT22;27616;51.420;6.788;2023-06-01T05:02:44;11.30;99.90
41928;DHT22;27616;51.420;6.788;2023-06-01T05:05:13;11.30;99.90
41928;DHT22;27616;51.420;6.788;2023-06-01T05:07:40;11.20;99.90
41928;DHT22;27616;51.420;6.788;2023-06-01T05:10:08;11.30;99.90
41928;DHT22;27616;51.420;6.788;2023-06-01T05:12:45;11.30;99.90
41928;DHT22;27616;51.420;6.788;2023-06-01T05:15:12;11.30;99.90
41928;DHT22;27616;51.420;6.788;2023-06-01T05:17:39;11.20;99.90
41928;DHT22;27616;51.420;6.788;2023-06-01T05:20:17;11.20;99.90
41928;DHT22;27616;51.420;6.788;2023-06-01T05:22:48;11.20;99.90
41928;DHT22;27616;51.420;6.788;2023-06-01T05:25:13;11.10;99.90
41928;DHT22;27616;51.420;6.788;2023-06-01T05:27:39;11.10;99.90
41928;DHT22;27616;51.420;6.788;2023-06-01T05:30:06;11.10;99.90
41928;DHT22;27616;51.420;6.788;2023-06-01T05:32:32;11.10;99.90
41928;DHT22;27616;51.420;6.788;2023-06-01T05:35:08;11.10;99.90
41928;DHT22;27616;51.420;6.788;2023-06-01T05:37:35;11.10;99.90
41928;DHT22;27616;51.420;6.788;2023-06-01T05:40:01;11.10;99.90
41928;DHT22;27616;51.420;6.788;2023-06-01T05:42:28;11.00;99.90
41928;DHT22;27616;51.420;6.788;2023-06-01T05:44:54;11.10;99.90
41928;DHT22;27616;51.420;6.788;2023-06-01T05:47:20;11.10;99.90
41928;DHT22;27616;51.420;6.788;2023-06-01T05:49:46;11.10;99.90
41928;DHT22;27616;51.420;6.788;2023-06-01T05:52:11;11.20;99.90
41928;DHT22;27616;51.420;6.788;2023-06-01T05:54:39;11.20;99.90
41928;DHT22;27616;51.420;6.788;2023-06-01T05:57:06;11.30;99.90
41928;DHT22;27616;51.420;6.788;2023-06-01T05:59:32;11.40;99.90
41928;DHT22;27616;51.420;6.788;2023-06-01T06:01:59;11.30;99.90
41928;DHT22;27616;51.420;6.788;2023-06-01T06:04:25;11.30;99.90
41928;DHT22;27616;51.420;6.788;2023-06-01T06:06:50;11.40;99.90
41928;DHT22;27616;51.420;6.788;2023-06-01T06:09:16;11.50;99.90
41928;DHT22;27616;51.420;6.788;2023-06-01T06:11:42;11.50;99.90
41928;DHT22;27616;51.420;6.788;2023-06-01T06:14:08;11.50;99.90
41928;DHT22;27616;51.420;6.788;2023-06-01T06:16:37;11.50;99.90
41928;DHT22;27616;51.420;6.788;2023-06-01T06:19:02;11.60;99.90
41928;DHT22;27616;51.420;6.788;2023-06-01T06:21:28;11.60;99.90
41928;DHT22;27616;51.420;6.788;2023-06-01T06:23:54;11.70;99.90
41928;DHT22;27616;51.420;6.788;2023-06-01T06:26:25;11.70;99.90
41928;DHT22;27616;51.420;6.788;2023-06-01T06:28:52;11.80;99.90
41928;DHT22;27616;51.420;6.788;2023-06-01T06:31:17;11.80;99.90
41928;DHT22;27616;51.420;6.788;2023-06-01T06:33:43;11.80;99.90
41928;DHT22;27616;51.420;6.788;2023-06-01T06:36:09;11.80;99.90
41928;DHT22;27616;51.420;6.788;2023-06-01T06:38:35;11.80;99.90
41928;DHT22;27616;51.420;6.788;2023-06-01T06:41:00;11.90;99.90
41928;DHT22;27616;51.420;6.788;2023-06-01T06:43:26;12.00;99.90
41928;DHT22;27616;51.420;6.788;2023-06-01T06:45:52;12.10;99.90
41928;DHT22;27616;51.420;6.788;2023-06-01T06:48:17;12.20;99.90
41928;DHT22;27616;51.420;6.788;2023-06-01T06:50:43;12.40;99.90
41928;DHT22;27616;51.420;6.788;2023-06-01T06:53:11;12.50;99.90
41928;DHT22;27616;51.420;6.788;2023-06-01T06:55:37;12.90;99.90
41928;DHT22;27616;51.420;6.788;2023-06-01T06:58:02;13.00;99.90
41928;DHT22;27616;51.420;6.788;2023-06-01T07:00:28;13.10;99.90
41928;DHT22;27616;51.420;6.788;2023-06-01T07:02:54;13.20;99.90
41928;DHT22;27616;51.420;6.788;2023-06-01T07:05:20;13.40;99.90
41928;DHT22;27616;51.420;6.788;2023-06-01T07:07:46;13.40;99.90
41928;DHT22;27616;51.420;6.788;2023-06-01T07:10:12;13.50;99.90
41928;DHT22;27616;51.420;6.788;2023-06-01T07:12:38;13.60;99.90
41928;DHT22;27616;51.420;6.788;2023-06-01T07:15:04;13.70;99.90
41928;DHT22;27616;51.420;6.788;2023-06-01T07:17:30;13.80;99.90
41928;DHT22;27616;51.420;6.788;2023-06-01T07:19:56;13.90;99.90
41928;DHT22;27616;51.420;6.788;2023-06-01T07:22:22;14.10;99.90
41928;DHT22;27616;51.420;6.788;2023-06-01T07:24:48;14.30;99.90
41928;DHT22;27616;51.420;6.788;2023-06-01T07:27:14;14.50;99.90
41928;DHT22;27616;51.420;6.788;2023-06-01T07:29:40;14.50;99.90
41928;DHT22;27616;51.420;6.788;2023-06-01T07:32:06;14.60;99.90
41928;DHT22;27616;51.420;6.788;2023-06-01T07:34:32;14.60;99.90
41928;DHT22;27616;51.420;6.788;2023-06-01T07:37:01;14.50;99.90
41928;DHT22;27616;51.420;6.788;2023-06-01T07:39:27;14.60;99.90
41928;DHT22;27616;51.420;6.788;2023-06-01T07:41:53;14.70;99.90
41928;DHT22;27616;51.420;6.788;2023-06-01T07:44:20;14.80;99.90
41928;DHT22;27616;51.420;6.788;2023-06-01T07:46:46;14.80;99.90
41928;DHT22;27616;51.420;6.788;2023-06-01T07:49:13;15.00;99.90
41928;DHT22;27616;51.420;6.788;2023-06-01T07:51:40;15.10;99.90
41928;DHT22;27616;51.420;6.788;2023-06-01T07:54:06;15.10;99.90
41928;DHT22;27616;51.420;6.788;2023-06-01T07:56:32;15.20;99.90
41928;DHT22;27616;51.420;6.788;2023-06-01T07:58:58;15.20;99.90
41928;DHT22;27616;51.420;6.788;2023-06-01T08:01:23;15.20;99.90
41928;DHT22;27616;51.420;6.788;2023-06-01T08:03:49;15.30;99.90
41928;DHT22;27616;51.420;6.788;2023-06-01T08:06:16;15.30;99.90
41928;DHT22;27616;51.420;6.788;2023-06-01T08:08:42;15.50;99.90
41928;DHT22;27616;51.420;6.788;2023-06-01T08:11:09;15.60;99.90
41928;DHT22;27616;51.420;6.788;2023-06-01T08:13:35;15.60;99.90
41928;DHT22;27616;51.420;6.788;2023-06-01T08:16:02;15.50;99.90
41928;DHT22;27616;51.420;6.788;2023-06-01T08:18:29;15.40;99.90
41928;DHT22;27616;51.420;6.788;2023-06-01T08:20:55;15.40;99.90
41928;DHT22;27616;51.420;6.788;2023-06-01T08:23:21;15.30;99.90
41928;DHT22;27616;51.420;6.788;2023-06-01T08:25:50;15.40;99.90
41928;DHT22;27616;51.420;6.788;2023-06-01T08:28:15;15.40;99.90
41928;DHT22;27616;51.420;6.788;2023-06-01T08:30:41;15.50;99.90
41928;DHT22;27616;51.420;6.788;2023-06-01T08:33:07;15.60;99.90
41928;DHT22;27616;51.420;6.788;2023-06-01T08:35:33;15.60;99.90
41928;DHT22;27616;51.420;6.788;2023-06-01T08:38:00;15.70;99.90
41928;DHT22;27616;51.420;6.788;2023-06-01T08:40:26;15.70;99.90
41928;DHT22;27616;51.420;6.788;2023-06-01T08:43:07;15.80;99.90
41928;DHT22;27616;51.420;6.788;2023-06-01T08:45:36;15.90;99.90
41928;DHT22;27616;51.420;6.788;2023-06-01T08:48:03;15.70;99.90
41928;DHT22;27616;51.420;6.788;2023-06-01T08:50:34;15.70;99.90
41928;DHT22;27616;51.420;6.788;2023-06-01T08:53:01;15.70;99.90
41928;DHT22;27616;51.420;6.788;2023-06-01T08:55:29;15.80;99.90
41928;DHT22;27616;51.420;6.788;2023-06-01T08:57:54;15.90;99.90
41928;DHT22;27616;51.420;6.788;2023-06-01T09:00:21;15.90;99.90
41928;DHT22;27616;51.420;6.788;2023-06-01T09:02:48;15.90;99.90
41928;DHT22;27616;51.420;6.788;2023-06-01T09:05:14;15.90;99.90
41928;DHT22;27616;51.420;6.788;2023-06-01T09:07:40;16.00;99.90
41928;DHT22;27616;51.420;6.788;2023-06-01T09:10:06;16.10;99.90
41928;DHT22;27616;51.420;6.788;2023-06-01T09:12:32;16.10;99.90
41928;DHT22;27616;51.420;6.788;2023-06-01T09:17:35;16.20;99.90
41928;DHT22;27616;51.420;6.788;2023-06-01T09:20:01;16.20;99.90
41928;DHT22;27616;51.420;6.788;2023-06-01T09:22:44;16.30;99.90
41928;DHT22;27616;51.420;6.788;2023-06-01T09:25:11;16.50;99.90
41928;DHT22;27616;51.420;6.788;2023-06-01T09:27:49;16.60;99.90
41928;DHT22;27616;51.420;6.788;2023-06-01T09:30:16;16.80;99.90
41928;DHT22;27616;51.420;6.788;2023-06-01T09:32:43;16.90;99.90
41928;DHT22;27616;51.420;6.788;2023-06-01T09:35:10;16.90;99.90
41928;DHT22;27616;51.420;6.788;2023-06-01T09:37:37;17.00;99.90
41928;DHT22;27616;51.420;6.788;2023-06-01T09:40:16;17.10;99.90
41928;DHT22;27616;51.420;6.788;2023-06-01T09:42:43;17.10;99.90
41928;DHT22;27616;51.420;6.788;2023-06-01T09:45:22;17.20;99.90
41928;DHT22;27616;51.420;6.788;2023-06-01T09:47:48;17.30;99.90
41928;DHT22;27616;51.420;6.788;2023-06-01T09:50:37;17.30;99.90
41928;DHT22;27616;51.420;6.788;2023-06-01T09:53:04;17.50;99.90
41928;DHT22;27616;51.420;6.788;2023-06-01T09:55:30;17.30;99.90
41928;DHT22;27616;51.420;6.788;2023-06-01T09:58:20;17.40;99.90
41928;DHT22;27616;51.420;6.788;2023-06-01T10:00:47;17.40;99.10
41928;DHT22;27616;51.420;6.788;2023-06-01T10:03:18;17.50;99.60
41928;DHT22;27616;51.420;6.788;2023-06-01T10:05:45;17.60;99.30
41928;DHT22;27616;51.420;6.788;2023-06-01T10:08:12;17.60;99.90
41928;DHT22;27616;51.420;6.788;2023-06-01T10:10:41;17.80;99.90
41928;DHT22;27616;51.420;6.788;2023-06-01T10:13:08;17.70;98.90
41928;DHT22;27616;51.420;6.788;2023-06-01T10:15:33;17.80;98.70
41928;DHT22;27616;51.420;6.788;2023-06-01T10:18:03;17.70;99.20
41928;DHT22;27616;51.420;6.788;2023-06-01T10:20:32;17.80;99.90
41928;DHT22;27616;51.420;6.788;2023-06-01T10:23:00;17.80;99.50
41928;DHT22;27616;51.420;6.788;2023-06-01T10:25:49;17.90;99.50
41928;DHT22;27616;51.420;6.788;2023-06-01T10:28:16;18.00;98.90
41928;DHT22;27616;51.420;6.788;2023-06-01T10:30:42;18.10;98.60
41928;DHT22;27616;51.420;6.788;2023-06-01T10:33:08;18.10;99.70
41928;DHT22;27616;51.420;6.788;2023-06-01T10:40:46;18.30;98.90
41928;DHT22;27616;51.420;6.788;2023-06-01T10:46:03;18.40;98.10
41928;DHT22;27616;51.420;6.788;2023-06-01T10:48:55;18.50;99.30
41928;DHT22;27616;51.420;6.788;2023-06-01T10:51:22;18.50;98.40
41928;DHT22;27616;51.420;6.788;2023-06-01T10:53:51;18.70;98.40
41928;DHT22;27616;51.420;6.788;2023-06-01T10:56:28;18.80;98.60
41928;DHT22;27616;51.420;6.788;2023-06-01T11:01:38;18.70;97.50
41928;DHT22;27616;51.420;6.788;2023-06-01T11:04:05;18.80;97.40
41928;DHT22;27616;51.420;6.788;2023-06-01T11:06:32;18.80;98.10
41928;DHT22;27616;51.420;6.788;2023-06-01T11:09:03;18.90;98.70
41928;DHT22;27616;51.420;6.788;2023-06-01T11:14:21;18.80;96.10
41928;DHT22;27616;51.420;6.788;2023-06-01T11:16:49;18.70;97.50
41928;DHT22;27616;51.420;6.788;2023-06-01T11:21:46;18.90;96.40
41928;DHT22;27616;51.420;6.788;2023-06-01T11:24:14;18.90;95.30
41928;DHT22;27616;51.420;6.788;2023-06-01T11:26:47;19.00;96.20
41928;DHT22;27616;51.420;6.788;2023-06-01T11:29:19;19.00;95.80
41928;DHT22;27616;51.420;6.788;2023-06-01T11:34:13;19.10;96.10
41928;DHT22;27616;51.420;6.788;2023-06-01T11:36:43;19.20;96.10
41928;DHT22;27616;51.420;6.788;2023-06-01T11:39:19;19.30;96.60
41928;DHT22;27616;51.420;6.788;2023-06-01T11:41:49;19.30;96.20
41928;DHT22;27616;51.420;6.788;2023-06-01T11:44:15;19.40;95.40
41928;DHT22;27616;51.420;6.788;2023-06-01T11:46:55;19.40;95.40
41928;DHT22;27616;51.420;6.788;2023-06-01T11:49:22;19.40;96.00
41928;DHT22;27616;51.420;6.788;2023-06-01T11:51:48;19.40;95.50
41928;DHT22;27616;51.420;6.788;2023-06-01T11:54:20;19.40;95.30
41928;DHT22;27616;51.420;6.788;2023-06-01T11:56:46;19.50;95.60
41928;DHT22;27616;51.420;6.788;2023-06-01T11:59:12;19.50;95.20
41928;DHT22;27616;51.420;6.788;2023-06-01T12:01:43;19.40;95.40
41928;DHT22;27616;51.420;6.788;2023-06-01T12:04:17;19.30;95.40
41928;DHT22;27616;51.420;6.788;2023-06-01T12:06:43;19.40;96.40
41928;DHT22;27616;51.420;6.788;2023-06-01T12:09:11;19.50;95.60
41928;DHT22;27616;51.420;6.788;2023-06-01T12:11:37;19.50;96.00
41928;DHT22;27616;51.420;6.788;2023-06-01T12:14:04;19.70;96.60
41928;DHT22;27616;51.420;6.788;2023-06-01T12:16:56;19.70;95.90
41928;DHT22;27616;51.420;6.788;2023-06-01T12:19:24;19.80;96.60
41928;DHT22;27616;51.420;6.788;2023-06-01T12:21:52;19.90;95.90
41928;DHT22;27616;51.420;6.788;2023-06-01T12:24:29;19.90;95.70
41928;DHT22;27616;51.420;6.788;2023-06-01T12:26:56;19.90;95.70
41928;DHT22;27616;51.420;6.788;2023-06-01T12:29:39;19.90;95.90
41928;DHT22;27616;51.420;6.788;2023-06-01T12:32:07;19.80;96.20
41928;DHT22;27616;51.420;6.788;2023-06-01T12:34:33;19.80;96.20
41928;DHT22;27616;51.420;6.788;2023-06-01T12:36:59;19.80;95.50
41928;DHT22;27616;51.420;6.788;2023-06-01T12:39:34;19.90;96.10
41928;DHT22;27616;51.420;6.788;2023-06-01T12:42:03;20.00;95.30
41928;DHT22;27616;51.420;6.788;2023-06-01T12:44:32;20.00;95.50
41928;DHT22;27616;51.420;6.788;2023-06-01T12:46:59;20.10;95.40
41928;DHT22;27616;51.420;6.788;2023-06-01T12:49:26;20.10;95.70
41928;DHT22;27616;51.420;6.788;2023-06-01T12:51:52;20.10;95.00
41928;DHT22;27616;51.420;6.788;2023-06-01T12:54:17;20.10;95.00
41928;DHT22;27616;51.420;6.788;2023-06-01T12:56:44;20.10;94.90
41928;DHT22;27616;51.420;6.788;2023-06-01T12:59:10;20.20;95.00
41928;DHT22;27616;51.420;6.788;2023-06-01T13:01:36;20.00;94.60
41928;DHT22;27616;51.420;6.788;2023-06-01T13:04:01;20.00;94.40
41928;DHT22;27616;51.420;6.788;2023-06-01T13:06:30;19.90;94.90
41928;DHT22;27616;51.420;6.788;2023-06-01T13:08:56;19.80;94.80
41928;DHT22;27616;51.420;6.788;2023-06-01T13:11:22;19.80;95.00
41928;DHT22;27616;51.420;6.788;2023-06-01T13:13:49;19.70;95.50
41928;DHT22;27616;51.420;6.788;2023-06-01T13:16:15;19.60;95.60
41928;DHT22;27616;51.420;6.788;2023-06-01T13:18:41;19.80;96.20
41928;DHT22;27616;51.420;6.788;2023-06-01T13:21:07;19.80;95.30
41928;DHT22;27616;51.420;6.788;2023-06-01T13:23:33;20.00;95.70
41928;DHT22;27616;51.420;6.788;2023-06-01T13:25:58;20.00;94.90
41928;DHT22;27616;51.420;6.788;2023-06-01T13:28:24;20.00;95.10
41928;DHT22;27616;51.420;6.788;2023-06-01T13:30:50;20.10;94.70
41928;DHT22;27616;51.420;6.788;2023-06-01T13:33:16;20.00;93.90
41928;DHT22;27616;51.420;6.788;2023-06-01T13:35:42;20.10;93.90
41928;DHT22;27616;51.420;6.788;2023-06-01T13:38:08;20.00;94.40
41928;DHT22;27616;51.420;6.788;2023-06-01T13:40:33;20.10;94.20
41928;DHT22;27616;51.420;6.788;2023-06-01T13:42:59;20.00;94.80
41928;DHT22;27616;51.420;6.788;2023-06-01T13:45:25;20.10;94.60
41928;DHT22;27616;51.420;6.788;2023-06-01T13:47:52;20.10;95.20
41928;DHT22;27616;51.420;6.788;2023-06-01T13:50:20;20.20;95.20
41928;DHT22;27616;51.420;6.788;2023-06-01T13:52:46;20.20;95.20
41928;DHT22;27616;51.420;6.788;2023-06-01T13:55:12;20.30;94.70
41928;DHT22;27616;51.420;6.788;2023-06-01T13:57:40;20.20;94.40
41928;DHT22;27616;51.420;6.788;2023-06-01T14:00:07;20.30;95.30
41928;DHT22;27616;51.420;6.788;2023-06-01T14:02:34;20.20;94.50
41928;DHT22;27616;51.420;6.788;2023-06-01T14:05:01;20.20;94.30
41928;DHT22;27616;51.420;6.788;2023-06-01T14:07:27;20.20;93.90
41928;DHT22;27616;51.420;6.788;2023-06-01T14:09:53;20.20;93.80
41928;DHT22;27616;51.420;6.788;2023-06-01T14:12:18;20.30;93.40
41928;DHT22;27616;51.420;6.788;2023-06-01T14:14:44;20.40;93.20
41928;DHT22;27616;51.420;6.788;2023-06-01T14:17:10;20.40;93.20
41928;DHT22;27616;51.420;6.788;2023-06-01T14:19:36;20.20;93.30
41928;DHT22;27616;51.420;6.788;2023-06-01T14:22:02;20.30;93.50
41928;DHT22;27616;51.420;6.788;2023-06-01T14:24:27;20.30;93.80
41928;DHT22;27616;51.420;6.788;2023-06-01T14:26:53;20.30;93.40
41928;DHT22;27616;51.420;6.788;2023-06-01T14:29:19;20.30;93.60
41928;DHT22;27616;51.420;6.788;2023-06-01T14:31:45;20.30;93.40
41928;DHT22;27616;51.420;6.788;2023-06-01T14:34:11;20.30;93.40
41928;DHT22;27616;51.420;6.788;2023-06-01T14:36:37;20.30;93.80
41928;DHT22;27616;51.420;6.788;2023-06-01T14:39:03;20.40;93.50
41928;DHT22;27616;51.420;6.788;2023-06-01T14:41:30;20.40;92.60
41928;DHT22;27616;51.420;6.788;2023-06-01T14:43:56;20.40;92.70
41928;DHT22;27616;51.420;6.788;2023-06-01T14:46:21;20.30;92.40
41928;DHT22;27616;51.420;6.788;2023-06-01T14:48:47;20.30;92.60
41928;DHT22;27616;51.420;6.788;2023-06-01T14:51:13;20.40;93.00
41928;DHT22;27616;51.420;6.788;2023-06-01T14:53:39;20.40;93.40
41928;DHT22;27616;51.420;6.788;2023-06-01T14:56:07;20.40;93.30
41928;DHT22;27616;51.420;6.788;2023-06-01T14:58:34;20.40;92.60
41928;DHT22;27616;51.420;6.788;2023-06-01T15:01:00;20.40;93.00
41928;DHT22;27616;51.420;6.788;2023-06-01T15:03:26;20.30;93.10
41928;DHT22;27616;51.420;6.788;2023-06-01T15:05:51;20.30;92.70
41928;DHT22;27616;51.420;6.788;2023-06-01T15:08:17;20.40;93.50
41928;DHT22;27616;51.420;6.788;2023-06-01T15:10:46;20.50;93.20
41928;DHT22;27616;51.420;6.788;2023-06-01T15:13:12;20.40;93.00
41928;DHT22;27616;51.420;6.788;2023-06-01T15:15:41;20.40;93.00
41928;DHT22;27616;51.420;6.788;2023-06-01T15:18:07;20.40;93.70
41928;DHT22;27616;51.420;6.788;2023-06-01T15:20:33;20.40;93.30
41928;DHT22;27616;51.420;6.788;2023-06-01T15:22:58;20.30;93.60
41928;DHT22;27616;51.420;6.788;2023-06-01T15:25:24;20.40;93.70
41928;DHT22;27616;51.420;6.788;2023-06-01T15:27:50;20.40;93.20
41928;DHT22;27616;51.420;6.788;2023-06-01T15:30:16;20.50;93.70
41928;DHT22;27616;51.420;6.788;2023-06-01T15:32:42;20.50;93.60
41928;DHT22;27616;51.420;6.788;2023-06-01T15:35:08;20.50;93.90
41928;DHT22;27616;51.420;6.788;2023-06-01T15:37:34;20.50;93.50
41928;DHT22;27616;51.420;6.788;2023-06-01T15:40:00;20.50;93.30
41928;DHT22;27616;51.420;6.788;2023-06-01T15:42:26;20.40;93.90
41928;DHT22;27616;51.420;6.788;2023-06-01T15:44:51;20.40;93.90
41928;DHT22;27616;51.420;6.788;2023-06-01T15:47:17;20.30;93.90
41928;DHT22;27616;51.420;6.788;2023-06-01T15:49:43;20.40;94.10
41928;DHT22;27616;51.420;6.788;2023-06-01T15:52:09;20.40;94.20
41928;DHT22;27616;51.420;6.788;2023-06-01T15:54:35;20.30;94.00
41928;DHT22;27616;51.420;6.788;2023-06-01T15:57:02;20.30;94.30
41928;DHT22;27616;51.420;6.788;2023-06-01T15:59:32;20.20;94.80
41928;DHT22;27616;51.420;6.788;2023-06-01T16:01:58;20.00;94.90
41928;DHT22;27616;51.420;6.788;2023-06-01T16:04:26;19.80;95.50
41928;DHT22;27616;51.420;6.788;2023-06-01T16:06:51;19.80;95.90
41928;DHT22;27616;51.420;6.788;2023-06-01T16:09:17;19.80;96.80